createdAt,value
2023-05-24T00:02:08.959Z,3.80
2023-05-24T00:04:35.957Z,4.10
2023-05-24T00:07:06.911Z,4.00
2023-05-24T00:09:33.748Z,4.88
2023-05-24T00:12:00.681Z,5.85
2023-05-24T00:14:27.637Z,4.82
2023-05-24T00:16:54.748Z,4.70
2023-05-24T00:19:23.166Z,3.92
2023-05-24T00:21:50.210Z,4.22
2023-05-24T00:24:17.698Z,4.30
2023-05-24T00:26:45.676Z,4.30
2023-05-24T00:29:12.777Z,4.30
2023-05-24T00:31:39.816Z,3.65
2023-05-24T00:34:07.752Z,3.35
2023-05-24T00:36:34.704Z,3.00
2023-05-24T00:39:01.543Z,3.58
2023-05-24T00:41:28.537Z,3.35
2023-05-24T00:43:55.573Z,3.90
2023-05-24T00:46:35.660Z,5.82
2023-05-24T00:49:02.798Z,4.47
2023-05-24T00:51:30.387Z,3.67
2023-05-24T00:53:57.648Z,4.75
2023-05-24T00:56:24.655Z,3.25
2023-05-24T00:58:55.017Z,3.58
2023-05-24T01:01:25.948Z,3.85
2023-05-24T01:03:54.629Z,3.95
2023-05-24T01:06:22.265Z,4.10
2023-05-24T01:08:57.135Z,3.80
2023-05-24T01:11:36.462Z,3.88
2023-05-24T01:14:27.373Z,4.07
2023-05-24T01:17:04.487Z,4.57
2023-05-24T01:19:34.534Z,3.20
2023-05-24T01:22:18.622Z,2.45
2023-05-24T01:25:23.418Z,4.82
2023-05-24T01:27:51.077Z,5.40
2023-05-24T01:30:18.480Z,6.28
2023-05-24T01:32:46.155Z,6.57
2023-05-24T01:35:13.131Z,5.45
2023-05-24T01:37:40.017Z,6.05
2023-05-24T01:40:07.861Z,6.38
2023-05-24T01:42:47.112Z,6.32
2023-05-24T01:45:19.805Z,6.45
2023-05-24T01:48:19.221Z,6.25
2023-05-24T01:50:53.105Z,6.30
2023-05-24T01:53:23.386Z,5.93
2023-05-24T01:55:54.177Z,7.10
2023-05-24T01:58:23.720Z,6.55
2023-05-24T02:00:52.039Z,6.50
2023-05-24T02:03:19.400Z,5.78
2023-05-24T02:05:46.898Z,5.18
2023-05-24T02:08:14.261Z,6.63
2023-05-24T02:10:41.710Z,5.63
2023-05-24T02:13:09.135Z,6.32
2023-05-24T02:15:36.328Z,5.90
2023-05-24T02:18:04.412Z,5.75
2023-05-24T02:20:31.742Z,5.95
2023-05-24T02:22:59.060Z,5.72
2023-05-24T02:25:26.308Z,6.25
2023-05-24T02:27:53.258Z,6.00
2023-05-24T02:30:20.310Z,5.40
2023-05-24T02:32:47.423Z,4.68
2023-05-24T02:35:14.310Z,5.43
2023-05-24T02:37:41.248Z,5.80
2023-05-24T02:40:08.846Z,5.00
2023-05-24T02:42:36.048Z,6.28
2023-05-24T02:45:03.251Z,5.47
2023-05-24T02:47:30.269Z,5.22
2023-05-24T02:49:57.259Z,5.82
2023-05-24T02:52:24.293Z,7.85
2023-05-24T02:54:51.551Z,8.00
2023-05-24T02:57:18.587Z,6.93
2023-05-24T02:59:45.537Z,5.53
2023-05-24T03:02:15.658Z,5.38
2023-05-24T03:04:42.651Z,7.30
2023-05-24T03:07:10.938Z,7.85
2023-05-24T03:09:37.880Z,7.88
2023-05-24T03:12:05.184Z,8.25
2023-05-24T03:14:32.013Z,7.93
2023-05-24T03:16:59.270Z,7.53
2023-05-24T03:19:26.220Z,8.57
